Time;durP1;ratioP1;P1;durP2;ratioP2;P2;SDS_P1;SDS_P2;PMS_P1;PMS_P2;Temp;Humidity;BMP_temperature;BMP_pressure;BME280_temperature;BME280_humidity;BME280_pressure;Samples;Min_cycle;Max_cycle;Signal;HPM_P1;HPM_P2
2022/05/23 00:04:29;;;;;;;10.05;9.15;;;;;;;;;;12545188;28;20045;-79
2022/05/23 00:10:30;;;;;;;;;;;;;;;;;;12526750;28;20033;-79
2022/05/23 00:16:34;;;;;;;7.87;7.27;;;;;;;;;;12526443;28;19916;-80
2022/05/23 00:22:37;;;;;;;7.00;6.30;;;;;;;;;;12525814;28;20045;-79
2022/05/23 00:28:39;;;;;;;6.55;5.95;;;;;;;;;;12525770;28;20037;-79
2022/05/23 00:47:56;;;;;;;5.43;5.03;;;;;;;;;;12486641;28;20041;-79
2022/05/23 00:54:05;;;;;;;5.85;5.30;;;;;;;;;;12535038;28;20391;-79
2022/05/23 01:00:09;;;;;;;8.45;7.78;;;;;;;;;;12535091;28;20037;-79
2022/05/23 01:06:11;;;;;;;5.28;4.82;;;;;;;;;;12535078;28;20032;-79
2022/05/23 01:12:14;;;;;;;7.60;6.90;;;;;;;;;;12551873;28;20564;-78
2022/05/23 01:18:16;;;;;;;6.97;6.38;;;;;;;;;;12534565;28;20033;-79
2022/05/23 01:24:17;;;;;;;7.32;6.70;;;;;;;;;;12551250;28;20063;-79
2022/05/23 01:30:27;;;;;;;7.00;6.32;;;;;;;;;;12533737;28;20029;-78
2022/05/23 01:36:59;;;;;;;6.10;5.60;;;;;;;;;;12521762;28;20048;-79
2022/05/23 01:43:04;;;;;;;4.28;3.97;;;;;;;;;;12516722;28;20502;-78
2022/05/23 01:49:06;;;;;;;7.25;6.65;;;;;;;;;;12532583;28;20037;-78
2022/05/23 01:55:07;;;;;;;;;;;;;;;;;;12533238;28;20043;-79
2022/05/23 02:01:15;;;;;;;7.03;6.50;;;;;;;;;;12516343;28;19940;-79
2022/05/23 02:07:25;;;;;;;5.18;4.78;;;;;;;;;;12532045;28;20367;-79
2022/05/23 02:13:26;;;;;;;5.43;4.88;;;;;;;;;;12515185;28;20044;-79
2022/05/23 02:19:29;;;;;;;;;;;;;;;;;;12532002;28;20036;-79
2022/05/23 02:25:39;;;;;;;6.15;5.57;;;;;;;;;;12531611;28;19923;-80
2022/05/23 02:32:01;;;;;;;6.10;5.65;;;;;;;;;;12517407;28;20048;-80
2022/05/23 02:38:03;;;;;;;6.40;5.90;;;;;;;;;;12513948;28;20033;-79
2022/05/23 02:44:05;;;;;;;;;;;;;;;;;;12530525;28;20045;-80
2022/05/23 02:50:08;;;;;;;5.22;4.82;;;;;;;;;;12547889;28;19912;-80
2022/05/23 02:56:16;;;;;;;5.47;5.00;;;;;;;;;;12513372;28;20306;-80
2022/05/23 03:08:39;;;;;;;8.30;7.07;;;;;;;;;;12529356;28;20147;-80
2022/05/23 03:14:41;;;;;;;6.05;5.55;;;;;;;;;;12529111;28;20040;-80
2022/05/23 03:20:43;;;;;;;;;;;;;;;;;;12528819;28;20049;-80
2022/05/23 03:27:00;;;;;;;6.13;5.53;;;;;;;;;;12546206;28;19916;-79
2022/05/23 03:33:05;;;;;;;6.43;5.82;;;;;;;;;;12513160;28;20395;-80
2022/05/23 03:39:06;;;;;;;6.25;5.75;;;;;;;;;;12528427;28;20405;-80
2022/05/23 03:45:08;;;;;;;;;;;;;;;;;;12527973;28;20048;-80
2022/05/23 03:51:17;;;;;;;7.63;7.00;;;;;;;;;;12511444;28;20392;-80
2022/05/23 03:57:19;;;;;;;7.97;7.30;;;;;;;;;;12544744;28;20584;-80
2022/05/23 04:03:21;;;;;;;;;;;;;;;;;;12545748;28;20051;-79
2022/05/23 04:09:23;;;;;;;6.07;5.53;;;;;;;;;;12525797;28;19919;-79
2022/05/23 04:15:25;;;;;;;6.55;5.93;;;;;;;;;;12526164;28;20028;-79
2022/05/23 04:21:27;;;;;;;6.35;5.75;;;;;;;;;;12525973;28;20049;-78
2022/05/23 04:27:30;;;;;;;6.10;5.22;;;;;;;;;;12526328;28;20036;-78
2022/05/23 04:39:53;;;;;;;5.25;4.75;;;;;;;;;;12525640;28;20056;-79
2022/05/23 04:45:55;;;;;;;;;;;;;;;;;;12525998;28;20041;-78
2022/05/23 04:51:56;;;;;;;5.57;5.07;;;;;;;;;;12543734;28;19924;-80
2022/05/23 04:58:05;;;;;;;5.57;4.97;;;;;;;;;;12525579;28;20055;-79
2022/05/23 05:04:07;;;;;;;;;;;;;;;;;;12526132;28;20045;-79
2022/05/23 05:10:13;;;;;;;5.60;5.07;;;;;;;;;;12524852;28;19920;-80
2022/05/23 05:16:19;;;;;;;6.13;5.63;;;;;;;;;;12524577;28;20029;-79
2022/05/23 05:22:21;;;;;;;6.13;4.95;;;;;;;;;;12533759;28;20474;-79
2022/05/23 05:28:42;;;;;;;5.25;4.75;;;;;;;;;;12519667;28;20036;-79
2022/05/23 05:34:49;;;;;;;5.72;5.18;;;;;;;;;;12531144;28;20060;-79
2022/05/23 05:40:54;;;;;;;4.25;3.85;;;;;;;;;;12560222;28;20053;-79
2022/05/23 05:46:59;;;;;;;4.80;4.40;;;;;;;;;;12556776;28;20033;-80
2022/05/23 05:53:06;;;;;;;5.30;4.90;;;;;;;;;;12591738;28;20513;-80
2022/05/23 05:59:09;;;;;;;3.08;2.80;;;;;;;;;;12540238;28;20025;-79
2022/05/23 06:05:17;;;;;;;4.60;4.15;;;;;;;;;;12531812;28;20041;-80
2022/05/23 06:11:26;;;;;;;4.30;3.90;;;;;;;;;;12531794;28;20037;-79
2022/05/23 06:17:42;;;;;;;4.88;4.40;;;;;;;;;;12540032;28;20143;-79
2022/05/23 06:23:46;;;;;;;4.38;4.07;;;;;;;;;;12519754;28;20413;-78
2022/05/23 06:30:06;;;;;;;3.83;3.53;;;;;;;;;;12566302;28;20036;-81
2022/05/23 06:36:38;;;;;;;4.43;4.13;;;;;;;;;;12531791;28;20048;-80
2022/05/23 06:42:40;;;;;;;4.68;4.28;;;;;;;;;;12533413;28;20132;-79
2022/05/23 06:49:00;;;;;;;5.15;4.65;;;;;;;;;;12565768;28;20036;-78
2022/05/23 06:55:14;;;;;;;4.20;3.80;;;;;;;;;;12537364;28;20068;-79
2022/05/23 07:01:21;;;;;;;5.13;4.63;;;;;;;;;;12557287;28;20040;-80
2022/05/23 07:14:24;;;;;;;4.00;3.70;;;;;;;;;;12557538;28;20029;-80
2022/05/23 07:20:28;;;;;;;4.18;3.83;;;;;;;;;;12551786;28;20388;-81
2022/05/23 07:26:44;;;;;;;3.42;2.80;;;;;;;;;;12562420;28;20039;-81
2022/05/23 07:32:49;;;;;;;3.63;3.33;;;;;;;;;;12553511;28;20390;-80
2022/05/23 07:39:03;;;;;;;3.38;3.08;;;;;;;;;;12541446;28;20024;-80
2022/05/23 07:45:40;;;;;;;3.08;2.88;;;;;;;;;;12478128;28;20064;-80
2022/05/23 07:51:43;;;;;;;2.67;2.47;;;;;;;;;;12532824;28;20032;-80
2022/05/23 08:04:30;;;;;;;3.65;3.00;;;;;;;;;;12539613;28;20051;-81
2022/05/23 08:10:36;;;;;;;2.92;2.72;;;;;;;;;;12542401;28;20036;-80
2022/05/23 08:16:38;;;;;;;3.63;3.33;;;;;;;;;;12546197;28;20037;-79
2022/05/23 08:22:40;;;;;;;5.93;4.20;;;;;;;;;;12540591;28;20045;-80
2022/05/23 08:28:55;;;;;;;3.00;2.70;;;;;;;;;;12540154;28;20389;-82
2022/05/23 08:35:01;;;;;;;4.93;2.90;;;;;;;;;;12553186;28;20045;-80
2022/05/23 08:41:09;;;;;;;4.85;3.42;;;;;;;;;;12542238;28;20486;-81
2022/05/23 08:47:26;;;;;;;3.55;3.15;;;;;;;;;;12539501;28;20118;-80
2022/05/23 08:53:40;;;;;;;3.75;3.08;;;;;;;;;;12540525;28;20496;-82
2022/05/23 09:00:18;;;;;;;3.00;2.80;;;;;;;;;;12522181;28;20044;-81
2022/05/23 09:06:29;;;;;;;3.42;3.13;;;;;;;;;;12543911;28;20033;-81
2022/05/23 09:12:31;;;;;;;4.15;3.03;;;;;;;;;;12574622;28;20036;-80
2022/05/23 09:18:48;;;;;;;3.10;2.88;;;;;;;;;;12578810;28;20401;-79
2022/05/23 09:24:54;;;;;;;3.47;3.17;;;;;;;;;;12558879;28;20493;-80
2022/05/23 09:31:00;;;;;;;3.92;3.55;;;;;;;;;;12553100;28;20049;-81
2022/05/23 09:37:04;;;;;;;3.05;2.85;;;;;;;;;;12559145;28;20048;-80
2022/05/23 09:49:32;;;;;;;3.42;3.13;;;;;;;;;;12577114;28;20401;-81
2022/05/23 09:55:35;;;;;;;4.00;3.70;;;;;;;;;;12557818;28;20044;-80
2022/05/23 10:01:37;;;;;;;4.55;4.15;;;;;;;;;;12549381;28;20047;-82
2022/05/23 10:07:39;;;;;;;3.00;2.80;;;;;;;;;;12551947;28;20036;-81
2022/05/23 10:13:49;;;;;;;2.95;2.75;;;;;;;;;;12559550;28;20064;-82
2022/05/23 10:19:51;;;;;;;2.55;2.30;;;;;;;;;;12566317;28;20063;-82
2022/05/23 10:26:11;;;;;;;4.15;3.40;;;;;;;;;;12580258;28;20052;-78
2022/05/23 10:32:16;;;;;;;3.78;2.88;;;;;;;;;;12575055;28;20048;-83
2022/05/23 10:44:56;;;;;;;4.00;3.57;;;;;;;;;;12581248;28;20052;-80
2022/05/23 10:51:17;;;;;;;4.03;3.50;;;;;;;;;;12576453;28;20043;-78
2022/05/23 10:57:24;;;;;;;4.95;3.45;;;;;;;;;;12568834;28;20035;-77
2022/05/23 11:03:29;;;;;;;3.45;3.25;;;;;;;;;;12547914;28;20055;-77
2022/05/23 11:09:43;;;;;;;3.67;3.38;;;;;;;;;;12553549;28;20029;-77
2022/05/23 11:15:54;;;;;;;3.45;3.15;;;;;;;;;;12573611;28;20052;-77
2022/05/23 11:22:04;;;;;;;3.38;3.08;;;;;;;;;;12544119;28;20067;-79
2022/05/23 11:34:38;;;;;;;3.67;3.38;;;;;;;;;;12561471;28;20045;-80
2022/05/23 11:40:39;;;;;;;3.17;2.97;;;;;;;;;;12561250;28;20040;-79
2022/05/23 11:47:04;;;;;;;3.58;3.33;;;;;;;;;;12538347;28;20305;-79
2022/05/23 11:53:28;;;;;;;3.20;2.88;;;;;;;;;;12554445;28;20036;-78
2022/05/23 11:59:29;;;;;;;3.55;3.25;;;;;;;;;;12589977;28;20036;-79
2022/05/23 12:05:33;;;;;;;3.78;3.47;;;;;;;;;;12546566;28;20482;-79
2022/05/23 12:11:37;;;;;;;3.45;3.20;;;;;;;;;;12546642;28;20040;-78
2022/05/23 12:17:39;;;;;;;3.13;2.92;;;;;;;;;;12558929;28;20040;-78
2022/05/23 12:23:41;;;;;;;3.58;3.28;;;;;;;;;;12546226;28;20036;-79
2022/05/23 12:29:43;;;;;;;4.30;3.60;;;;;;;;;;12562357;28;20424;-79
2022/05/23 12:35:48;;;;;;;3.58;3.38;;;;;;;;;;12559643;28;20056;-78
2022/05/23 12:42:02;;;;;;;3.40;2.90;;;;;;;;;;12569512;28;20044;-78
2022/05/23 12:48:23;;;;;;;3.83;3.30;;;;;;;;;;12590148;28;20040;-78
2022/05/23 12:54:28;;;;;;;3.45;3.17;;;;;;;;;;12590435;28;20033;-77
2022/05/23 13:00:35;;;;;;;3.22;2.50;;;;;;;;;;12591498;28;20036;-78
2022/05/23 13:06:46;;;;;;;2.88;2.65;;;;;;;;;;12570908;28;20044;-78
2022/05/23 13:12:47;;;;;;;;;;;;;;;;;;12570617;28;20043;-78
2022/05/23 13:25:11;;;;;;;3.55;3.25;;;;;;;;;;12582658;28;20045;-79
2022/05/23 13:31:35;;;;;;;3.30;3.00;;;;;;;;;;12554393;28;20405;-78
2022/05/23 13:37:38;;;;;;;2.97;2.70;;;;;;;;;;12553203;28;20036;-79
2022/05/23 13:43:43;;;;;;;3.78;3.03;;;;;;;;;;12569179;28;20412;-79
2022/05/23 13:49:46;;;;;;;3.20;2.83;;;;;;;;;;12529928;28;20037;-79
2022/05/23 13:55:49;;;;;;;3.05;2.85;;;;;;;;;;12578449;28;20024;-78
2022/05/23 14:01:53;;;;;;;2.67;2.47;;;;;;;;;;12592306;28;20044;-81
2022/05/23 14:07:55;;;;;;;2.53;2.35;;;;;;;;;;12599512;28;20028;-78
2022/05/23 14:14:11;;;;;;;2.97;2.78;;;;;;;;;;12586738;28;20033;-78
2022/05/23 14:20:13;;;;;;;3.63;2.40;;;;;;;;;;12549069;28;20055;-81
2022/05/23 14:26:19;;;;;;;3.97;3.13;;;;;;;;;;12548703;28;20041;-78
2022/05/23 14:32:24;;;;;;;2.20;2.10;;;;;;;;;;12530640;28;20061;-78
2022/05/23 14:38:28;;;;;;;2.35;2.25;;;;;;;;;;12530457;28;20040;-79
2022/05/23 14:44:32;;;;;;;2.60;2.40;;;;;;;;;;12530717;28;20051;-79
2022/05/23 14:50:42;;;;;;;5.30;2.45;;;;;;;;;;12546797;28;20029;-78
2022/05/23 14:56:44;;;;;;;3.53;2.50;;;;;;;;;;12547703;28;20028;-79
2022/05/23 15:02:47;;;;;;;2.50;2.30;;;;;;;;;;12529310;28;20049;-78
2022/05/23 15:08:49;;;;;;;3.75;2.63;;;;;;;;;;12528955;28;20029;-79
2022/05/23 15:14:51;;;;;;;2.70;1.95;;;;;;;;;;12528827;28;20048;-79
2022/05/23 15:20:54;;;;;;;2.35;2.15;;;;;;;;;;12546450;28;20386;-78
2022/05/23 15:26:56;;;;;;;2.53;2.00;;;;;;;;;;12545954;28;20049;-78
2022/05/23 15:33:01;;;;;;;1.77;1.67;;;;;;;;;;12511650;28;20049;-78
2022/05/23 15:39:04;;;;;;;2.60;2.22;;;;;;;;;;12545091;28;20037;-80
2022/05/23 15:45:09;;;;;;;5.55;2.13;;;;;;;;;;12545543;28;20053;-79
2022/05/23 15:51:12;;;;;;;2.35;2.15;;;;;;;;;;12544879;28;20172;-78
2022/05/23 15:57:16;;;;;;;3.75;1.90;;;;;;;;;;12544525;28;20033;-79
2022/05/23 16:03:19;;;;;;;2.88;2.05;;;;;;;;;;12544818;28;20049;-79
2022/05/23 16:09:20;;;;;;;1.50;1.40;;;;;;;;;;12526324;28;20032;-79
2022/05/23 16:15:22;;;;;;;3.75;1.80;;;;;;;;;;12526042;28;20032;-79
2022/05/23 16:21:27;;;;;;;2.00;1.77;;;;;;;;;;12543699;28;20025;-79
2022/05/23 16:27:29;;;;;;;3.00;1.77;;;;;;;;;;12543388;28;20048;-78
2022/05/23 16:39:51;;;;;;;;;;;;;;;;;;12527262;28;20044;-79
2022/05/23 16:45:55;;;;;;;2.55;1.40;;;;;;;;;;12544466;28;19923;-79
2022/05/23 16:51:57;;;;;;;2.80;1.55;;;;;;;;;;12526394;28;20044;-78
2022/05/23 16:57:59;;;;;;;2.45;1.63;;;;;;;;;;12526540;28;20036;-79
2022/05/23 17:04:01;;;;;;;3.05;1.50;;;;;;;;;;12544529;28;20048;-79
2022/05/23 17:10:03;;;;;;;1.88;1.77;;;;;;;;;;12543655;28;20029;-78
2022/05/23 17:16:06;;;;;;;2.55;1.88;;;;;;;;;;12531257;28;20029;-79
2022/05/23 17:22:08;;;;;;;3.42;1.80;;;;;;;;;;12552201;28;20048;-79
2022/05/23 17:28:10;;;;;;;3.80;2.70;;;;;;;;;;12552084;28;20378;-79
2022/05/23 17:34:12;;;;;;;2.58;1.90;;;;;;;;;;12534405;28;20055;-78
2022/05/23 17:40:14;;;;;;;2.45;2.05;;;;;;;;;;12534318;28;20482;-79
2022/05/23 17:46:17;;;;;;;2.50;2.05;;;;;;;;;;12533382;28;20044;-78
2022/05/23 17:52:18;;;;;;;5.63;2.60;;;;;;;;;;12532821;28;20041;-79
2022/05/23 17:58:20;;;;;;;2.47;2.28;;;;;;;;;;12550622;28;20488;-78
2022/05/23 18:04:22;;;;;;;3.75;2.80;;;;;;;;;;12551149;28;20045;-79
2022/05/23 18:10:24;;;;;;;2.20;2.10;;;;;;;;;;12549954;28;20430;-78
2022/05/23 18:22:47;;;;;;;2.97;2.20;;;;;;;;;;12531848;28;20398;-78
2022/05/23 18:28:49;;;;;;;3.75;2.33;;;;;;;;;;12548612;28;20481;-79
2022/05/23 18:34:51;;;;;;;3.63;2.38;;;;;;;;;;12531484;28;20383;-78
2022/05/23 18:40:53;;;;;;;3.72;2.40;;;;;;;;;;12514356;28;20036;-78
2022/05/23 18:46:55;;;;;;;2.65;1.63;;;;;;;;;;12513994;28;20044;-78
2022/05/23 18:52:57;;;;;;;1.95;1.85;;;;;;;;;;12514125;28;20041;-78
2022/05/23 18:58:59;;;;;;;3.58;2.15;;;;;;;;;;12530003;28;20033;-78
2022/05/23 19:05:00;;;;;;;2.45;2.20;;;;;;;;;;12548192;28;20052;-78
2022/05/23 19:11:02;;;;;;;2.95;2.20;;;;;;;;;;12547121;28;20032;-78
2022/05/23 19:17:04;;;;;;;2.47;2.00;;;;;;;;;;12546694;28;20053;-78
2022/05/23 19:23:06;;;;;;;2.92;2.55;;;;;;;;;;12512215;28;20044;-78
2022/05/23 19:29:08;;;;;;;2.30;2.10;;;;;;;;;;12545961;28;20048;-78
2022/05/23 19:35:11;;;;;;;2.40;2.20;;;;;;;;;;12528495;28;20075;-78
2022/05/23 19:41:14;;;;;;;2.67;2.47;;;;;;;;;;12527802;28;20060;-78
2022/05/23 19:47:16;;;;;;;2.13;2.00;;;;;;;;;;12527776;28;20052;-78
2022/05/23 19:53:19;;;;;;;1.77;1.67;;;;;;;;;;12544916;28;20052;-79
2022/05/23 19:59:21;;;;;;;2.80;1.70;;;;;;;;;;12527082;28;20034;-78
2022/05/23 20:11:44;;;;;;;2.60;1.75;;;;;;;;;;12544642;28;20044;-78
2022/05/23 20:17:47;;;;;;;2.03;1.92;;;;;;;;;;12526271;28;20386;-78
2022/05/23 20:23:51;;;;;;;2.17;1.67;;;;;;;;;;12543732;28;20033;-78
2022/05/23 20:29:53;;;;;;;2.40;1.63;;;;;;;;;;12543915;28;20401;-78
2022/05/23 20:35:55;;;;;;;4.35;2.20;;;;;;;;;;12527216;28;20065;-78
2022/05/23 20:41:57;;;;;;;2.25;1.98;;;;;;;;;;12525712;28;20287;-78
2022/05/23 20:47:59;;;;;;;3.42;2.33;;;;;;;;;;12544987;28;20055;-78
2022/05/23 20:54:01;;;;;;;2.85;2.20;;;;;;;;;;12553374;28;20037;-78
2022/05/23 21:00:07;;;;;;;2.88;2.33;;;;;;;;;;12553858;28;20041;-79
2022/05/23 21:06:09;;;;;;;3.08;2.47;;;;;;;;;;12535205;28;20041;-78
2022/05/23 21:12:11;;;;;;;3.35;2.92;;;;;;;;;;12552743;28;20036;-78
2022/05/23 21:18:15;;;;;;;3.47;3.17;;;;;;;;;;12552496;28;20040;-78
2022/05/23 21:24:16;;;;;;;;;;;;;;;;;;12534622;28;20044;-78
2022/05/23 21:30:23;;;;;;;2.27;2.07;;;;;;;;;;12533961;28;19932;-78
2022/05/23 21:36:26;;;;;;;4.72;2.97;;;;;;;;;;12551945;28;20057;-79
2022/05/23 21:48:49;;;;;;;3.13;2.80;;;;;;;;;;12533761;28;20387;-78
2022/05/23 21:54:51;;;;;;;3.67;2.58;;;;;;;;;;12550752;28;20048;-78
2022/05/23 22:07:15;;;;;;;;;;;;;;;;;;12532788;28;20033;-78
2022/05/23 22:13:17;;;;;;;3.70;2.77;;;;;;;;;;12550046;28;19909;-78
2022/05/23 22:19:25;;;;;;;5.18;3.10;;;;;;;;;;12531601;28;20037;-78
2022/05/23 22:25:27;;;;;;;3.63;3.30;;;;;;;;;;12549252;28;20045;-78
2022/05/23 22:31:29;;;;;;;4.05;3.75;;;;;;;;;;12530918;28;20048;-78
2022/05/23 22:37:32;;;;;;;4.25;3.72;;;;;;;;;;12548753;28;20033;-79
2022/05/23 22:43:34;;;;;;;4.65;3.42;;;;;;;;;;12514005;28;20048;-78
2022/05/23 22:49:36;;;;;;;;;;;;;;;;;;12530782;28;20032;-78
2022/05/23 22:55:38;;;;;;;3.15;2.85;;;;;;;;;;12547795;28;19909;-78
2022/05/23 23:01:40;;;;;;;;;;;;;;;;;;12530469;28;20036;-78
2022/05/23 23:07:43;;;;;;;3.08;2.60;;;;;;;;;;12529413;28;19924;-78
2022/05/23 23:13:44;;;;;;;3.20;2.42;;;;;;;;;;12546076;28;20512;-78
2022/05/23 23:19:46;;;;;;;;;;;;;;;;;;12512897;28;20079;-78
2022/05/23 23:25:48;;;;;;;3.03;2.80;;;;;;;;;;12528340;28;19931;-78
2022/05/23 23:31:49;;;;;;;;;;;;;;;;;;12546160;28;20052;-78
2022/05/23 23:37:54;;;;;;;3.80;3.40;;;;;;;;;;12545954;28;19920;-78
2022/05/23 23:43:56;;;;;;;4.30;3.83;;;;;;;;;;12527490;28;20393;-78
2022/05/23 23:49:58;;;;;;;5.85;4.00;;;;;;;;;;12545029;28;20051;-78
2022/05/23 23:55:59;;;;;;;4.13;3.83;;;;;;;;;;12527098;28;20055;-78
